createdAt,value
2018-05-10T00:00:38.322Z,1005.88
2018-05-10T00:01:38.389Z,1005.79
2018-05-10T00:02:38.358Z,1005.74
2018-05-10T00:03:38.368Z,1005.73
2018-05-10T00:04:38.389Z,1005.79
2018-05-10T00:05:38.485Z,1005.80
2018-05-10T00:06:38.420Z,1005.88
2018-05-10T00:07:38.486Z,1005.83
2018-05-10T00:08:38.459Z,1005.87
2018-05-10T00:09:38.471Z,1005.87
2018-05-10T00:10:38.494Z,1005.91
2018-05-10T00:11:38.505Z,1005.93
2018-05-10T00:12:38.526Z,1005.93
2018-05-10T00:13:38.586Z,1005.91
2018-05-10T00:14:38.557Z,1005.97
2018-05-10T00:15:38.577Z,1005.94
2018-05-10T00:16:38.589Z,1005.95
2018-05-10T00:17:38.602Z,1005.94
2018-05-10T00:18:38.624Z,1005.92
2018-05-10T00:19:38.698Z,1005.95
2018-05-10T00:20:38.659Z,1005.94
2018-05-10T00:21:38.675Z,1005.92
2018-05-10T00:22:38.695Z,1005.91
2018-05-10T00:23:38.704Z,1005.91
2018-05-10T00:24:38.725Z,1005.80
2018-05-10T00:25:38.742Z,1005.86
2018-05-10T00:26:38.758Z,1005.73
2018-05-10T00:27:38.771Z,1005.62
2018-05-10T00:28:38.789Z,1005.65
2018-05-10T00:29:38.811Z,1005.67
2018-05-10T00:30:38.821Z,1005.60
2018-05-10T00:31:38.844Z,1005.57
2018-05-10T00:32:38.859Z,1005.63
2018-05-10T00:33:38.884Z,1005.55
2018-05-10T00:34:38.892Z,1005.58
2018-05-10T00:35:38.920Z,1005.55
2018-05-10T00:36:38.923Z,1005.58
2018-05-10T00:37:38.944Z,1005.58
2018-05-10T00:38:38.959Z,1005.57
2018-05-10T00:39:39.019Z,1005.63
2018-05-10T00:40:38.997Z,1005.69
2018-05-10T00:41:39.012Z,1005.65
2018-05-10T00:42:39.027Z,1005.61
2018-05-10T00:43:39.048Z,1005.58
2018-05-10T00:44:39.056Z,1005.54
2018-05-10T00:45:39.160Z,1005.55
2018-05-10T00:46:39.099Z,1005.59
2018-05-10T00:47:39.110Z,1005.59
2018-05-10T00:48:39.130Z,1005.59
2018-05-10T00:49:39.144Z,1005.50
2018-05-10T00:50:39.173Z,1005.61
2018-05-10T00:51:39.174Z,1005.47
2018-05-10T00:52:39.194Z,1005.58
2018-05-10T00:53:39.210Z,1005.45
2018-05-10T00:54:39.250Z,1005.40
2018-05-10T00:55:39.246Z,1005.46
2018-05-10T00:56:39.263Z,1005.46
2018-05-10T00:57:39.274Z,1005.46
2018-05-10T00:58:39.289Z,1005.36
2018-05-10T00:59:39.311Z,1005.34
2018-05-10T01:00:39.374Z,1005.36
2018-05-10T01:01:39.337Z,1005.31
2018-05-10T01:02:39.353Z,1005.32
2018-05-10T01:03:39.380Z,1005.30
2018-05-10T01:04:39.390Z,1005.27
2018-05-10T01:05:39.408Z,1005.39
2018-05-10T01:06:39.427Z,1005.28
2018-05-10T01:07:39.444Z,1005.37
2018-05-10T01:08:39.532Z,1005.27
2018-05-10T01:09:39.471Z,1005.29
2018-05-10T01:10:39.490Z,1005.21
2018-05-10T01:11:39.504Z,1005.22
2018-05-10T01:12:39.569Z,1005.23
2018-05-10T01:13:39.542Z,1005.23
2018-05-10T01:14:39.555Z,1005.28
2018-05-10T01:15:39.570Z,1005.29
2018-05-10T01:16:39.589Z,1005.20
2018-05-10T01:17:39.605Z,1005.23
2018-05-10T01:18:39.674Z,1005.16
2018-05-10T01:19:39.639Z,1005.17
2018-05-10T01:20:39.650Z,1005.16
2018-05-10T01:21:39.667Z,1005.15
2018-05-10T01:22:39.690Z,1005.15
2018-05-10T01:23:39.706Z,1005.19
2018-05-10T01:24:39.726Z,1005.19
2018-05-10T01:25:39.761Z,1005.21
2018-05-10T01:26:39.750Z,1005.22
2018-05-10T01:27:39.772Z,1005.23
2018-05-10T01:28:39.785Z,1005.17
2018-05-10T01:29:39.800Z,1005.13
2018-05-10T01:30:39.821Z,1005.19
2018-05-10T01:31:39.832Z,1005.11
2018-05-10T01:32:39.855Z,1005.03
2018-05-10T01:33:39.868Z,1005.05
2018-05-10T01:34:39.885Z,1005.05
2018-05-10T01:35:39.901Z,1005.05
2018-05-10T01:36:39.966Z,1005.11
2018-05-10T01:37:39.935Z,1005.07
2018-05-10T01:38:39.947Z,1005.11
2018-05-10T01:39:39.963Z,1005.10
2018-05-10T01:40:39.987Z,1005.05
2018-05-10T01:41:40.003Z,1005.13
2018-05-10T01:42:40.020Z,1005.11
2018-05-10T01:43:40.033Z,1005.10
2018-05-10T01:44:40.052Z,1005.16
2018-05-10T01:45:40.068Z,1005.17
2018-05-10T01:46:40.083Z,1005.11
2018-05-10T01:47:40.102Z,1005.18
2018-05-10T01:48:40.126Z,1005.18
2018-05-10T01:49:40.134Z,1005.16
2018-05-10T01:50:40.150Z,1005.25
2018-05-10T01:51:40.170Z,1005.14
2018-05-10T01:52:40.183Z,1005.21
2018-05-10T01:53:40.202Z,1005.22
2018-05-10T01:54:40.246Z,1005.22
2018-05-10T01:55:40.230Z,1005.09
2018-05-10T01:56:40.250Z,1005.15
2018-05-10T01:57:40.265Z,1005.00
2018-05-10T01:58:40.317Z,1005.14
2018-05-10T01:59:40.297Z,1004.99
2018-05-10T02:00:40.318Z,1004.95
2018-05-10T02:01:40.332Z,1004.88
2018-05-10T02:02:40.344Z,1004.91
2018-05-10T02:03:40.362Z,1004.92
2018-05-10T02:04:40.382Z,1004.94
2018-05-10T02:05:40.452Z,1004.93
2018-05-10T02:06:40.462Z,1004.96
2018-05-10T02:07:40.431Z,1004.91
2018-05-10T02:08:40.448Z,1004.89
2018-05-10T02:09:40.463Z,1004.85
2018-05-10T02:10:40.479Z,1004.99
2018-05-10T02:11:40.570Z,1004.89
2018-05-10T02:12:40.561Z,1004.93
2018-05-10T02:13:40.525Z,1004.90
2018-05-10T02:14:40.597Z,1004.91
2018-05-10T02:15:40.560Z,1004.93
2018-05-10T02:16:40.580Z,1004.84
2018-05-10T02:17:40.593Z,1004.93
2018-05-10T02:18:40.613Z,1004.83
2018-05-10T02:19:40.627Z,1004.81
2018-05-10T02:20:40.647Z,1004.77
2018-05-10T02:21:40.661Z,1004.69
2018-05-10T02:22:40.733Z,1004.75
2018-05-10T02:23:40.695Z,1004.63
2018-05-10T02:24:40.706Z,1004.81
2018-05-10T02:25:40.724Z,1004.86
2018-05-10T02:26:40.744Z,1004.90
2018-05-10T02:27:40.759Z,1004.83
2018-05-10T02:28:40.779Z,1004.79
2018-05-10T02:29:40.815Z,1004.89
2018-05-10T02:30:40.810Z,1004.92
2018-05-10T02:31:40.821Z,1004.74
2018-05-10T02:32:40.842Z,1004.91
2018-05-10T02:33:40.855Z,1004.91
2018-05-10T02:34:40.871Z,1004.87
2018-05-10T02:35:40.885Z,1004.86
2018-05-10T02:36:40.909Z,1004.91
2018-05-10T02:37:40.925Z,1004.99
2018-05-10T02:38:40.936Z,1004.95
2018-05-10T02:39:40.954Z,1004.91
2018-05-10T02:40:40.970Z,1004.92
2018-05-10T02:41:40.986Z,1004.92
2018-05-10T02:42:41.050Z,1004.84
2018-05-10T02:43:41.026Z,1004.87
2018-05-10T02:44:41.038Z,1004.81
2018-05-10T02:45:41.096Z,1004.88
2018-05-10T02:46:41.070Z,1004.86
2018-05-10T02:47:41.096Z,1004.89
2018-05-10T02:48:41.105Z,1004.94
2018-05-10T02:49:41.128Z,1004.87
2018-05-10T02:50:41.135Z,1004.93
2018-05-10T02:51:41.148Z,1004.87
2018-05-10T02:52:41.170Z,1004.89
2018-05-10T02:53:41.185Z,1004.95
2018-05-10T02:54:41.199Z,1004.89
2018-05-10T02:55:41.225Z,1004.91
2018-05-10T02:56:41.234Z,1004.94
2018-05-10T02:57:41.250Z,1004.92
2018-05-10T02:58:41.271Z,1004.91
2018-05-10T02:59:41.284Z,1004.89
2018-05-10T03:00:41.359Z,1004.95
2018-05-10T03:01:41.318Z,1004.89
2018-05-10T03:02:41.359Z,1004.93
2018-05-10T03:03:41.351Z,1004.87
2018-05-10T03:04:41.365Z,1004.75
2018-05-10T03:05:41.378Z,1004.84
2018-05-10T03:06:41.448Z,1004.86
2018-05-10T03:07:41.410Z,1004.84
2018-05-10T03:08:41.425Z,1004.74
2018-05-10T03:09:41.442Z,1004.64
2018-05-10T03:10:41.458Z,1004.63
2018-05-10T03:11:41.488Z,1004.72
2018-05-10T03:12:41.544Z,1004.72
2018-05-10T03:13:41.515Z,1004.73
2018-05-10T03:14:41.532Z,1004.84
2018-05-10T03:15:41.553Z,1004.73
2018-05-10T03:16:41.560Z,1004.78
2018-05-10T03:17:41.574Z,1004.82
2018-05-10T03:18:41.591Z,1004.80
2018-05-10T03:19:41.621Z,1004.85
2018-05-10T03:20:41.623Z,1004.79
2018-05-10T03:21:41.643Z,1004.83
2018-05-10T03:22:41.666Z,1004.83
2018-05-10T03:23:41.673Z,1004.84
2018-05-10T03:24:41.746Z,1004.81
2018-05-10T03:25:41.738Z,1004.75
2018-05-10T03:26:41.727Z,1004.84
2018-05-10T03:27:41.744Z,1004.91
2018-05-10T03:28:41.752Z,1004.83
2018-05-10T03:29:41.769Z,1004.90
2018-05-10T03:30:41.838Z,1004.84
2018-05-10T03:31:41.836Z,1004.95
2018-05-10T03:32:41.819Z,1004.92
2018-05-10T03:33:41.842Z,1004.94
2018-05-10T03:34:41.858Z,1004.91
2018-05-10T03:35:41.871Z,1004.93
2018-05-10T03:36:41.943Z,1004.95
2018-05-10T03:37:41.946Z,1005.00
2018-05-10T03:38:41.927Z,1004.90
2018-05-10T03:39:41.937Z,1004.99
2018-05-10T03:40:41.952Z,1004.95
2018-05-10T03:41:41.971Z,1004.97
2018-05-10T03:42:42.036Z,1005.03
2018-05-10T03:43:41.999Z,1004.92
2018-05-10T03:44:42.025Z,1004.93
2018-05-10T03:45:42.040Z,1004.95
2018-05-10T03:46:42.050Z,1004.95
2018-05-10T03:47:42.072Z,1005.00
2018-05-10T03:48:42.119Z,1004.86
2018-05-10T03:49:42.099Z,1004.87
2018-05-10T03:50:42.118Z,1004.87
2018-05-10T03:51:42.135Z,1004.84
2018-05-10T03:52:42.153Z,1004.77
2018-05-10T03:53:42.169Z,1004.80
2018-05-10T03:54:42.232Z,1004.77
2018-05-10T03:55:42.203Z,1004.70
2018-05-10T03:56:42.214Z,1004.64
2018-05-10T03:57:42.234Z,1004.71
2018-05-10T03:58:42.245Z,1004.72
2018-05-10T03:59:42.272Z,1004.65
2018-05-10T04:00:42.334Z,1004.65
2018-05-10T04:01:42.300Z,1004.51
2018-05-10T04:02:42.312Z,1004.57
2018-05-10T04:03:42.328Z,1004.55
2018-05-10T04:04:42.355Z,1004.52
2018-05-10T04:05:42.394Z,1004.52
2018-05-10T04:06:42.433Z,1004.52
2018-05-10T04:07:42.401Z,1004.51
2018-05-10T04:08:42.422Z,1004.50
2018-05-10T04:09:42.432Z,1004.51
2018-05-10T04:10:42.447Z,1004.53
2018-05-10T04:11:42.544Z,1004.58
2018-05-10T04:12:42.529Z,1004.56
2018-05-10T04:13:42.493Z,1004.59
2018-05-10T04:14:42.515Z,1004.59
2018-05-10T04:15:42.530Z,1004.70
2018-05-10T04:16:42.602Z,1004.67
2018-05-10T04:17:42.567Z,1004.66
2018-05-10T04:18:42.629Z,1004.62
2018-05-10T04:19:42.592Z,1004.66
2018-05-10T04:20:42.611Z,1004.67
2018-05-10T04:21:42.629Z,1004.77
2018-05-10T04:22:42.643Z,1004.73
2018-05-10T04:23:42.660Z,1004.72
2018-05-10T04:24:42.753Z,1004.72
2018-05-10T04:25:42.689Z,1004.74
2018-05-10T04:26:42.712Z,1004.76
2018-05-10T04:27:42.728Z,1004.61
2018-05-10T04:28:42.743Z,1004.69
2018-05-10T04:29:42.760Z,1004.69
2018-05-10T04:30:42.780Z,1004.63
2018-05-10T04:31:42.793Z,1004.61
2018-05-10T04:32:42.814Z,1004.64
2018-05-10T04:33:42.867Z,1004.59
2018-05-10T04:34:42.837Z,1004.61
2018-05-10T04:35:42.925Z,1004.53
2018-05-10T04:36:42.931Z,1004.57
2018-05-10T04:37:42.891Z,1004.53
2018-05-10T04:38:42.902Z,1004.60
2018-05-10T04:39:42.922Z,1004.58
2018-05-10T04:40:42.941Z,1004.49
2018-05-10T04:41:42.955Z,1004.53
2018-05-10T04:42:43.023Z,1004.51
2018-05-10T04:43:42.990Z,1004.57
2018-05-10T04:44:43.005Z,1004.52
2018-05-10T04:45:43.018Z,1004.52
2018-05-10T04:46:43.038Z,1004.59
2018-05-10T04:47:43.051Z,1004.48
2018-05-10T04:48:43.126Z,1004.50
2018-05-10T04:49:43.081Z,1004.47
2018-05-10T04:50:43.134Z,1004.57
2018-05-10T04:51:43.119Z,1004.54
2018-05-10T04:52:43.136Z,1004.54
2018-05-10T04:53:43.149Z,1004.60
2018-05-10T04:54:43.262Z,1004.62
2018-05-10T04:55:43.182Z,1004.69
2018-05-10T04:56:43.201Z,1004.81
2018-05-10T04:57:43.214Z,1004.73
2018-05-10T04:58:43.231Z,1004.73
2018-05-10T04:59:43.252Z,1004.83
2018-05-10T05:00:43.319Z,1004.82
2018-05-10T05:01:43.284Z,1004.83
2018-05-10T05:02:43.300Z,1004.86
2018-05-10T05:03:43.321Z,1004.88
2018-05-10T05:04:43.329Z,1004.88
2018-05-10T05:05:43.347Z,1004.92
2018-05-10T05:06:43.427Z,1004.83
2018-05-10T05:07:43.416Z,1004.80
2018-05-10T05:08:43.421Z,1004.88
2018-05-10T05:09:43.416Z,1004.84
2018-05-10T05:10:43.432Z,1004.79
2018-05-10T05:11:43.443Z,1004.79
2018-05-10T05:12:43.511Z,1004.79
2018-05-10T05:13:43.481Z,1004.86
2018-05-10T05:14:43.499Z,1004.77
2018-05-10T05:15:43.509Z,1004.80
2018-05-10T05:16:43.534Z,1004.78
2018-05-10T05:17:43.547Z,1004.83
2018-05-10T05:18:43.613Z,1004.83
2018-05-10T05:19:43.575Z,1004.77
2018-05-10T05:20:43.596Z,1004.78
2018-05-10T05:21:43.609Z,1004.74
2018-05-10T05:22:43.630Z,1004.83
2018-05-10T05:23:43.653Z,1004.80
2018-05-10T05:24:43.765Z,1004.85
2018-05-10T05:25:43.671Z,1004.86
2018-05-10T05:26:43.694Z,1004.83
2018-05-10T05:27:43.714Z,1004.84
2018-05-10T05:28:43.728Z,1004.85
2018-05-10T05:29:43.738Z,1004.83
2018-05-10T05:30:43.868Z,1004.88
2018-05-10T05:31:43.783Z,1004.90
2018-05-10T05:32:43.875Z,1004.89
2018-05-10T05:33:43.806Z,1004.91
2018-05-10T05:34:43.825Z,1004.88
2018-05-10T05:35:43.839Z,1004.85
2018-05-10T05:36:43.908Z,1004.92
2018-05-10T05:37:43.870Z,1004.92
2018-05-10T05:38:43.893Z,1004.96
2018-05-10T05:39:43.903Z,1004.94
2018-05-10T05:40:43.930Z,1004.93
2018-05-10T05:41:43.939Z,1004.90
2018-05-10T05:42:44.011Z,1004.92
2018-05-10T05:43:43.975Z,1004.91
2018-05-10T05:44:43.994Z,1004.93
2018-05-10T05:45:44.007Z,1004.89
2018-05-10T05:46:44.019Z,1004.92
2018-05-10T05:47:44.077Z,1005.00
2018-05-10T05:48:44.103Z,1004.97
2018-05-10T05:49:44.072Z,1004.98
2018-05-10T05:50:44.086Z,1005.02
2018-05-10T05:51:44.109Z,1005.07
2018-05-10T05:52:44.125Z,1005.05
2018-05-10T05:53:44.139Z,1005.07
2018-05-10T05:54:44.205Z,1005.17
2018-05-10T05:55:44.174Z,1005.16
2018-05-10T05:56:44.193Z,1005.19
2018-05-10T05:57:44.205Z,1005.23
2018-05-10T05:58:44.256Z,1005.19
2018-05-10T05:59:44.243Z,1005.25
2018-05-10T06:00:44.311Z,1005.25
2018-05-10T06:01:44.274Z,1005.21
2018-05-10T06:02:44.285Z,1005.28
2018-05-10T06:03:44.304Z,1005.30
2018-05-10T06:04:44.354Z,1005.28
2018-05-10T06:05:44.340Z,1005.27
2018-05-10T06:06:44.408Z,1005.31
2018-05-10T06:07:44.376Z,1005.39
2018-05-10T06:08:44.406Z,1005.34
2018-05-10T06:09:44.403Z,1005.39
2018-05-10T06:10:44.425Z,1005.38
2018-05-10T06:11:44.438Z,1005.40
2018-05-10T06:12:44.508Z,1005.41
2018-05-10T06:13:44.477Z,1005.40
2018-05-10T06:14:44.492Z,1005.39
2018-05-10T06:15:44.553Z,1005.42
2018-05-10T06:16:44.527Z,1005.34
2018-05-10T06:17:44.545Z,1005.32
2018-05-10T06:18:44.608Z,1005.33
2018-05-10T06:19:44.572Z,1005.34
2018-05-10T06:20:44.588Z,1005.34
2018-05-10T06:21:44.604Z,1005.41
2018-05-10T06:22:44.627Z,1005.36
2018-05-10T06:23:44.642Z,1005.33
2018-05-10T06:24:44.729Z,1005.32
2018-05-10T06:25:44.672Z,1005.34
2018-05-10T06:26:44.696Z,1005.34
2018-05-10T06:27:44.711Z,1005.30
2018-05-10T06:28:44.723Z,1005.37
2018-05-10T06:29:44.796Z,1005.31
2018-05-10T06:30:44.815Z,1005.32
2018-05-10T06:31:44.781Z,1005.28
2018-05-10T06:32:44.790Z,1005.25
2018-05-10T06:33:44.817Z,1005.26
2018-05-10T06:34:44.832Z,1005.33
2018-05-10T06:35:44.841Z,1005.38
2018-05-10T06:36:44.912Z,1005.32
2018-05-10T06:37:44.885Z,1005.38
2018-05-10T06:38:44.948Z,1005.38
2018-05-10T06:39:44.912Z,1005.42
2018-05-10T06:40:44.933Z,1005.42
2018-05-10T06:41:44.945Z,1005.44
2018-05-10T06:42:44.964Z,1005.45
2018-05-10T06:43:44.982Z,1005.50
2018-05-10T06:44:45.048Z,1005.46
2018-05-10T06:45:45.014Z,1005.45
2018-05-10T06:46:45.058Z,1005.46
2018-05-10T06:47:45.051Z,1005.46
2018-05-10T06:48:45.149Z,1005.48
2018-05-10T06:49:45.088Z,1005.46
2018-05-10T06:50:45.167Z,1005.51
2018-05-10T06:51:45.118Z,1005.48
2018-05-10T06:52:45.134Z,1005.56
2018-05-10T06:53:45.153Z,1005.53
2018-05-10T06:54:45.331Z,1005.49
2018-05-10T06:55:45.184Z,1005.51
2018-05-10T06:56:45.205Z,1005.49
2018-05-10T06:57:45.230Z,1005.50
2018-05-10T06:58:45.243Z,1005.47
2018-05-10T06:59:45.257Z,1005.43
2018-05-10T07:00:45.326Z,1005.40
2018-05-10T07:01:45.292Z,1005.45
2018-05-10T07:02:45.307Z,1005.47
2018-05-10T07:03:45.325Z,1005.58
2018-05-10T07:04:45.353Z,1005.56
2018-05-10T07:05:45.367Z,1005.55
2018-05-10T07:06:45.435Z,1005.60
2018-05-10T07:07:45.446Z,1005.54
2018-05-10T07:08:45.426Z,1005.66
2018-05-10T07:09:45.563Z,1005.58
2018-05-10T07:10:45.456Z,1005.58
2018-05-10T07:11:45.472Z,1005.67
2018-05-10T07:12:45.536Z,1005.73
2018-05-10T07:13:45.509Z,1005.74
2018-05-10T07:14:45.524Z,1005.65
2018-05-10T07:15:45.540Z,1005.67
2018-05-10T07:16:45.559Z,1005.77
2018-05-10T07:17:45.579Z,1005.72
2018-05-10T07:18:45.678Z,1005.76
2018-05-10T07:19:45.613Z,1005.77
2018-05-10T07:20:45.634Z,1005.81
2018-05-10T07:21:45.660Z,1005.80
2018-05-10T07:22:45.677Z,1005.92
2018-05-10T07:23:45.690Z,1005.83
2018-05-10T07:24:45.838Z,1005.86
2018-05-10T07:25:45.728Z,1005.90
2018-05-10T07:26:45.747Z,1005.99
2018-05-10T07:27:45.765Z,1005.88
2018-05-10T07:28:45.780Z,1005.91
2018-05-10T07:29:45.813Z,1005.87
2018-05-10T07:30:45.872Z,1005.90
2018-05-10T07:31:45.838Z,1005.88
2018-05-10T07:32:45.852Z,1005.86
2018-05-10T07:33:45.870Z,1005.88
2018-05-10T07:34:45.893Z,1005.98
2018-05-10T07:35:45.913Z,1005.94
2018-05-10T07:36:45.978Z,1005.95
2018-05-10T07:37:45.943Z,1005.94
2018-05-10T07:38:45.968Z,1006.00
2018-05-10T07:39:45.990Z,1006.00
2018-05-10T07:40:46.075Z,1005.99
2018-05-10T07:41:46.031Z,1006.08
2018-05-10T07:42:46.095Z,1006.03
2018-05-10T07:43:46.064Z,1006.11
2018-05-10T07:44:46.083Z,1006.10
2018-05-10T07:45:46.110Z,1006.10
2018-05-10T07:46:46.118Z,1006.19
2018-05-10T07:47:46.138Z,1006.21
2018-05-10T07:48:46.209Z,1006.17
2018-05-10T07:49:46.171Z,1006.14
2018-05-10T07:50:46.200Z,1006.10
2018-05-10T07:51:46.230Z,1006.11
2018-05-10T07:52:46.233Z,1006.16
2018-05-10T07:53:46.248Z,1006.02
2018-05-10T07:54:46.320Z,1006.00
2018-05-10T07:55:46.366Z,1006.04
2018-05-10T07:56:46.305Z,1006.03
2018-05-10T07:57:46.334Z,1005.98
2018-05-10T07:58:46.342Z,1005.99
2018-05-10T07:59:46.364Z,1006.02
2018-05-10T08:00:46.439Z,1006.05
2018-05-10T08:01:46.408Z,1005.95
2018-05-10T08:02:46.422Z,1005.97
2018-05-10T08:03:46.445Z,1005.97
2018-05-10T08:04:46.465Z,1005.91
2018-05-10T08:05:46.483Z,1005.93
2018-05-10T08:06:46.557Z,1005.94
2018-05-10T08:07:46.539Z,1005.98
2018-05-10T08:08:46.540Z,1005.95
2018-05-10T08:09:46.557Z,1006.00
2018-05-10T08:10:46.574Z,1006.03
2018-05-10T08:11:46.596Z,1006.02
2018-05-10T08:12:46.672Z,1006.05
2018-05-10T08:13:46.633Z,1006.09
2018-05-10T08:14:46.657Z,1006.12
2018-05-10T08:15:46.676Z,1006.09
2018-05-10T08:16:46.699Z,1006.13
2018-05-10T08:17:46.711Z,1006.04
2018-05-10T08:18:46.789Z,1006.10
2018-05-10T08:19:46.759Z,1006.07
2018-05-10T08:20:46.779Z,1006.10
2018-05-10T08:21:46.791Z,1006.08
2018-05-10T08:22:46.814Z,1006.14
2018-05-10T08:23:46.832Z,1006.14
2018-05-10T08:24:46.857Z,1006.10
2018-05-10T08:25:46.932Z,1006.14
2018-05-10T08:26:46.894Z,1006.15
2018-05-10T08:27:46.914Z,1006.09
2018-05-10T08:28:46.932Z,1006.06
2018-05-10T08:29:46.949Z,1006.14
2018-05-10T08:30:47.025Z,1006.00
2018-05-10T08:31:46.991Z,1006.00
2018-05-10T08:32:47.011Z,1005.92
2018-05-10T08:33:47.028Z,1005.91
2018-05-10T08:34:47.055Z,1005.91
2018-05-10T08:35:47.076Z,1005.90
2018-05-10T08:36:47.284Z,1005.90
2018-05-10T08:37:47.116Z,1005.96
2018-05-10T08:38:47.128Z,1005.96
2018-05-10T08:39:47.153Z,1005.95
2018-05-10T08:40:47.179Z,1006.02
2018-05-10T08:41:47.187Z,1005.98
2018-05-10T08:42:47.329Z,1006.01
2018-05-10T08:43:47.236Z,1006.00
2018-05-10T08:44:47.249Z,1005.99
2018-05-10T08:45:47.269Z,1006.15
2018-05-10T08:46:47.294Z,1006.01
2018-05-10T08:47:47.337Z,1005.99
2018-05-10T08:48:47.390Z,1005.99
2018-05-10T08:49:47.351Z,1006.02
2018-05-10T08:50:47.375Z,1005.97
2018-05-10T08:51:47.476Z,1005.99
2018-05-10T08:52:47.418Z,1005.97
2018-05-10T08:53:47.432Z,1005.95
2018-05-10T08:54:47.477Z,1005.97
2018-05-10T08:55:47.475Z,1006.00
2018-05-10T08:56:47.498Z,1005.93
2018-05-10T08:57:47.513Z,1005.96
2018-05-10T08:58:47.534Z,1006.02
2018-05-10T08:59:47.559Z,1006.04
2018-05-10T09:00:47.681Z,1006.05
2018-05-10T09:01:47.591Z,1006.06
2018-05-10T09:02:47.619Z,1006.00
2018-05-10T09:03:47.641Z,1006.02
2018-05-10T09:04:47.659Z,1006.09
2018-05-10T09:05:47.678Z,1006.10
2018-05-10T09:06:47.803Z,1006.13
2018-05-10T09:07:47.718Z,1006.09
2018-05-10T09:08:47.747Z,1006.07
2018-05-10T09:09:47.764Z,1006.11
2018-05-10T09:10:47.782Z,1006.04
2018-05-10T09:11:47.804Z,1006.02
2018-05-10T09:12:47.857Z,1006.02
2018-05-10T09:13:47.844Z,1005.96
2018-05-10T09:14:47.868Z,1006.05
2018-05-10T09:15:47.890Z,1006.03
2018-05-10T09:16:47.913Z,1006.00
2018-05-10T09:17:47.934Z,1005.99
2018-05-10T09:18:48.011Z,1006.07
2018-05-10T09:19:47.978Z,1006.06
2018-05-10T09:20:47.988Z,1006.01
2018-05-10T09:21:48.011Z,1006.14
2018-05-10T09:22:48.037Z,1006.11
2018-05-10T09:23:48.060Z,1006.11
2018-05-10T09:24:48.132Z,1006.19
2018-05-10T09:25:48.093Z,1006.18
2018-05-10T09:26:48.115Z,1006.22
2018-05-10T09:27:48.139Z,1006.27
2018-05-10T09:28:48.163Z,1006.22
2018-05-10T09:29:48.185Z,1006.19
2018-05-10T09:30:48.201Z,1006.18
2018-05-10T09:31:48.228Z,1006.17
2018-05-10T09:32:48.247Z,1006.12
2018-05-10T09:33:48.316Z,1006.13
2018-05-10T09:34:48.290Z,1006.15
2018-05-10T09:35:48.310Z,1006.10
2018-05-10T09:36:48.433Z,1006.12
2018-05-10T09:37:48.354Z,1006.17
2018-05-10T09:38:48.394Z,1006.14
2018-05-10T09:39:48.395Z,1006.12
2018-05-10T09:40:48.414Z,1006.19
2018-05-10T09:41:48.439Z,1006.22
2018-05-10T09:42:48.459Z,1006.21
2018-05-10T09:43:48.529Z,1006.23
2018-05-10T09:44:48.555Z,1006.35
2018-05-10T09:45:48.520Z,1006.27
2018-05-10T09:46:48.547Z,1006.32
2018-05-10T09:47:48.572Z,1006.32
2018-05-10T09:48:48.640Z,1006.28
2018-05-10T09:49:48.636Z,1006.22
2018-05-10T09:50:48.642Z,1006.26
2018-05-10T09:51:48.652Z,1006.23
2018-05-10T09:52:48.679Z,1006.28
2018-05-10T09:53:48.700Z,1006.05
2018-05-10T09:54:48.773Z,1006.31
2018-05-10T09:55:48.767Z,1006.27
2018-05-10T09:56:48.761Z,1006.33
2018-05-10T09:57:48.782Z,1006.35
2018-05-10T09:58:48.808Z,1006.35
2018-05-10T09:59:48.931Z,1006.34
2018-05-10T10:00:48.919Z,1006.33
2018-05-10T10:01:48.941Z,1006.20
2018-05-10T10:02:48.892Z,1006.25
2018-05-10T10:03:48.916Z,1006.22
2018-05-10T10:04:48.939Z,1006.23
2018-05-10T10:05:48.961Z,1006.28
2018-05-10T10:06:48.987Z,1006.27
2018-05-10T10:07:49.005Z,1006.19
2018-05-10T10:08:49.024Z,1006.27
2018-05-10T10:09:49.046Z,1006.29
2018-05-10T10:10:49.068Z,1006.32
2018-05-10T10:11:49.093Z,1006.33
2018-05-10T10:12:49.116Z,1006.33
2018-05-10T10:13:49.215Z,1006.35
2018-05-10T10:14:49.160Z,1006.40
2018-05-10T10:15:49.281Z,1006.42
2018-05-10T10:16:49.199Z,1006.33
2018-05-10T10:17:49.219Z,1006.45
2018-05-10T10:18:49.248Z,1006.38
2018-05-10T10:19:49.296Z,1006.33
2018-05-10T10:20:49.284Z,1006.33
2018-05-10T10:21:49.305Z,1006.27
2018-05-10T10:22:49.332Z,1006.41
2018-05-10T10:23:49.353Z,1006.39
2018-05-10T10:24:49.422Z,1006.38
2018-05-10T10:25:49.466Z,1006.42
2018-05-10T10:26:49.426Z,1006.43
2018-05-10T10:27:49.440Z,1006.48
2018-05-10T10:28:49.466Z,1006.45
2018-05-10T10:29:49.487Z,1006.29
2018-05-10T10:30:49.509Z,1006.39
2018-05-10T10:31:49.530Z,1006.38
2018-05-10T10:32:49.549Z,1006.38
2018-05-10T10:33:49.567Z,1006.42
2018-05-10T10:35:49.619Z,1006.47
2018-05-10T10:36:49.685Z,1006.55
2018-05-10T10:37:49.710Z,1006.48
2018-05-10T10:38:49.681Z,1006.46
2018-05-10T10:39:49.706Z,1006.57
2018-05-10T10:40:49.723Z,1006.50
2018-05-10T10:41:49.746Z,1006.48
2018-05-10T10:42:49.825Z,1006.55
2018-05-10T10:43:49.840Z,1006.44
2018-05-10T10:44:49.814Z,1006.49
2018-05-10T10:45:49.842Z,1006.45
2018-05-10T10:46:49.864Z,1006.50
2018-05-10T10:47:49.881Z,1006.47
2018-05-10T10:48:49.898Z,1006.45
2018-05-10T10:49:50.082Z,1006.40
2018-05-10T10:50:49.948Z,1006.39
2018-05-10T10:51:49.964Z,1006.41
2018-05-10T10:52:50.084Z,1006.42
2018-05-10T10:53:50.068Z,1006.38
2018-05-10T10:54:50.092Z,1006.39
2018-05-10T10:55:50.079Z,1006.35
2018-05-10T10:56:50.076Z,1006.34
2018-05-10T10:57:50.098Z,1006.35
2018-05-10T10:58:50.128Z,1006.35
2018-05-10T10:59:50.145Z,1006.38
2018-05-10T11:00:50.218Z,1006.27
2018-05-10T11:01:50.272Z,1006.34
2018-05-10T11:02:50.215Z,1006.32
2018-05-10T11:03:50.240Z,1006.26
2018-05-10T11:04:50.256Z,1006.27
2018-05-10T11:05:50.280Z,1006.19
2018-05-10T11:06:50.358Z,1006.18
2018-05-10T11:07:50.378Z,1006.13
2018-05-10T11:08:50.469Z,1006.21
2018-05-10T11:09:50.373Z,1006.16
2018-05-10T11:10:50.392Z,1006.17
2018-05-10T11:11:50.421Z,1006.14
2018-05-10T11:12:50.492Z,1006.18
2018-05-10T11:13:50.503Z,1006.16
2018-05-10T11:14:50.490Z,1006.17
2018-05-10T11:15:50.508Z,1006.11
2018-05-10T11:16:50.532Z,1006.08
2018-05-10T11:17:50.562Z,1006.12
2018-05-10T11:18:50.629Z,1005.99
2018-05-10T11:19:50.606Z,1006.10
2018-05-10T11:20:50.676Z,1006.18
2018-05-10T11:21:50.653Z,1006.13
2018-05-10T11:22:50.678Z,1006.14
2018-05-10T11:23:50.694Z,1006.10
2018-05-10T11:24:50.776Z,1006.02
2018-05-10T11:25:50.746Z,1006.00
2018-05-10T11:26:50.771Z,1005.98
2018-05-10T11:27:50.787Z,1005.91
2018-05-10T11:28:50.816Z,1005.94
2018-05-10T11:29:50.835Z,1005.95
2018-05-10T11:30:50.863Z,1006.01
2018-05-10T11:31:50.887Z,1006.00
2018-05-10T11:32:50.910Z,1006.02
2018-05-10T11:33:50.927Z,1006.07
2018-05-10T11:34:50.957Z,1006.09
2018-05-10T11:35:51.026Z,1006.09
2018-05-10T11:36:51.006Z,1006.10
2018-05-10T11:37:51.030Z,1006.04
2018-05-10T11:38:51.045Z,1006.04
2018-05-10T11:39:51.075Z,1006.04
2018-05-10T11:40:51.097Z,1006.11
2018-05-10T11:41:51.122Z,1006.06
2018-05-10T11:42:51.191Z,1006.08
2018-05-10T11:43:51.169Z,1006.07
2018-05-10T11:44:51.215Z,1006.01
2018-05-10T11:45:51.214Z,1006.12
2018-05-10T11:46:51.235Z,1006.11
2018-05-10T11:47:51.258Z,1006.04
2018-05-10T11:48:51.338Z,1006.04
2018-05-10T11:49:51.314Z,1005.99
2018-05-10T11:50:51.392Z,1006.06
2018-05-10T11:51:51.383Z,1006.04
2018-05-10T11:52:51.377Z,1006.01
2018-05-10T11:53:51.400Z,1006.08
2018-05-10T11:54:51.474Z,1006.09
2018-05-10T11:55:51.452Z,1006.07
2018-05-10T11:56:51.472Z,1006.03
2018-05-10T11:57:51.493Z,1006.09
2018-05-10T11:58:51.523Z,1006.09
2018-05-10T11:59:51.548Z,1006.13
2018-05-10T12:00:51.622Z,1006.17
2018-05-10T12:01:51.593Z,1006.15
2018-05-10T12:02:51.620Z,1006.15
2018-05-10T12:03:51.644Z,1006.15
2018-05-10T12:04:51.662Z,1006.12
2018-05-10T12:05:51.685Z,1006.07
2018-05-10T12:06:51.761Z,1006.05